Terminal Aerodrome Forecast
Issued by NWS

Home | Current Version | Previous Version | Text Only | Print | Product List | Glossary Off
Versions: 1 2 3 4 5 6 7 8 9 10 11 12 13 14

167
FTUS43 KBIS 091729
TAFMOT
TAF
KMOT 091729Z 0918/1018 30010KT P6SM SCT130
     FM092200 VRB05KT P6SM BKN090
     FM101400 11004KT P6SM BKN030
     FM101700 10005KT 4SM -SN OVC015=

USA.gov is the U.S. government's official web portal to all federal, state and local government web resources and services.